createdAt,value
2023-02-16T00:00:21.182Z,1.82
2023-02-16T00:02:53.045Z,1.83
2023-02-16T00:05:24.904Z,1.79
2023-02-16T00:07:56.760Z,1.75
2023-02-16T00:10:28.317Z,1.76
2023-02-16T00:13:18.634Z,1.75
2023-02-16T00:15:50.177Z,1.74
2023-02-16T00:18:21.694Z,1.74
2023-02-16T00:20:53.169Z,1.73
2023-02-16T00:23:24.977Z,1.75
2023-02-16T00:25:56.461Z,1.72
2023-02-16T00:28:28.290Z,1.70
2023-02-16T00:30:59.911Z,1.72
2023-02-16T00:33:31.826Z,1.69
2023-02-16T00:36:03.320Z,1.66
2023-02-16T00:38:35.139Z,1.64
2023-02-16T00:41:26.584Z,1.64
2023-02-16T00:43:58.453Z,1.56
2023-02-16T00:46:29.993Z,1.55
2023-02-16T00:49:01.979Z,1.52
2023-02-16T00:51:33.468Z,1.49
2023-02-16T00:54:05.288Z,1.45
2023-02-16T00:56:36.795Z,1.42
2023-02-16T00:59:08.667Z,1.40
2023-02-16T01:01:40.198Z,1.41
2023-02-16T01:04:12.144Z,1.38
2023-02-16T01:07:02.410Z,1.38
2023-02-16T01:09:52.935Z,1.36
2023-02-16T01:12:24.497Z,1.33
2023-02-16T01:14:56.268Z,1.34
2023-02-16T01:17:27.765Z,1.29
2023-02-16T01:19:59.570Z,1.30
2023-02-16T01:22:33.440Z,1.31
2023-02-16T01:25:05.298Z,1.31
2023-02-16T01:27:37.168Z,1.28
2023-02-16T01:30:08.711Z,1.23
2023-02-16T01:32:40.222Z,1.21
2023-02-16T01:35:11.739Z,1.14
2023-02-16T01:37:43.339Z,1.10
2023-02-16T01:40:14.928Z,1.05
2023-02-16T01:42:46.401Z,1.06
2023-02-16T01:45:17.917Z,1.01
2023-02-16T01:47:49.521Z,0.99
2023-02-16T01:50:21.053Z,0.94
2023-02-16T01:52:52.548Z,0.89
2023-02-16T01:55:24.311Z,0.87
2023-02-16T01:57:56.109Z,0.86
2023-02-16T02:00:27.619Z,0.87
2023-02-16T02:03:19.098Z,0.86
2023-02-16T02:05:50.610Z,0.88
2023-02-16T02:08:22.556Z,0.88
2023-02-16T02:10:54.041Z,0.88
2023-02-16T02:13:25.596Z,0.88
2023-02-16T02:15:57.138Z,0.88
2023-02-16T02:18:28.912Z,0.90
2023-02-16T02:21:19.274Z,0.87
2023-02-16T02:23:51.086Z,0.87
2023-02-16T02:26:22.567Z,0.87
2023-02-16T02:28:54.399Z,0.82
2023-02-16T02:31:25.942Z,0.81
2023-02-16T02:33:57.791Z,0.83
2023-02-16T02:36:29.291Z,0.47
2023-02-16T02:39:01.110Z,0.80
2023-02-16T02:41:51.350Z,0.76
2023-02-16T02:44:23.199Z,0.76
2023-02-16T02:46:54.799Z,0.76
2023-02-16T02:49:26.683Z,0.75
2023-02-16T02:51:58.180Z,0.73
2023-02-16T02:54:48.645Z,0.69
2023-02-16T02:57:38.658Z,0.67
2023-02-16T03:00:29.084Z,0.67
2023-02-16T03:03:00.635Z,0.62
2023-02-16T03:05:32.353Z,0.58
2023-02-16T03:08:14.280Z,0.55
2023-02-16T03:11:05.017Z,0.55
2023-02-16T03:13:36.965Z,0.53
2023-02-16T03:16:08.516Z,0.51
2023-02-16T03:18:58.944Z,0.49
2023-02-16T03:21:49.265Z,0.53
2023-02-16T03:24:39.548Z,0.53
2023-02-16T03:27:29.598Z,0.52
2023-02-16T03:30:01.243Z,0.52
2023-02-16T03:32:32.785Z,0.52
2023-02-16T03:35:04.580Z,0.52
2023-02-16T03:37:36.048Z,0.52
2023-02-16T03:40:26.504Z,0.51
2023-02-16T03:42:58.180Z,0.53
2023-02-16T03:45:30.218Z,0.49
2023-02-16T03:48:01.806Z,0.48
2023-02-16T03:50:33.670Z,0.46
2023-02-16T03:53:08.255Z,0.46
2023-02-16T03:55:40.084Z,0.49
2023-02-16T03:58:11.571Z,0.49
2023-02-16T04:00:43.389Z,0.45
2023-02-16T04:03:14.869Z,0.44
2023-02-16T04:05:46.728Z,0.42
2023-02-16T04:08:18.201Z,0.38
2023-02-16T04:10:49.927Z,0.37
2023-02-16T04:13:21.424Z,0.40
2023-02-16T04:15:53.323Z,0.39
2023-02-16T04:18:24.816Z,0.36
2023-02-16T04:20:56.288Z,0.32
2023-02-16T04:23:27.756Z,0.33
2023-02-16T04:25:59.263Z,0.28
2023-02-16T04:28:30.736Z,0.29
2023-02-16T04:31:02.822Z,0.31
2023-02-16T04:33:34.947Z,0.27
2023-02-16T04:36:06.473Z,0.23
2023-02-16T04:38:38.503Z,0.24
2023-02-16T04:41:09.974Z,0.21
2023-02-16T04:43:41.822Z,0.20
2023-02-16T04:46:13.358Z,0.18
2023-02-16T04:48:45.176Z,0.19
2023-02-16T04:51:16.733Z,0.24
2023-02-16T04:53:48.249Z,0.22
2023-02-16T04:56:19.721Z,0.22
2023-02-16T04:58:51.470Z,0.19
2023-02-16T05:01:23.028Z,0.17
2023-02-16T05:03:54.893Z,0.15
2023-02-16T05:06:26.459Z,0.14
2023-02-16T05:08:58.272Z,0.14
2023-02-16T05:11:48.857Z,0.13
2023-02-16T05:14:39.344Z,0.17
2023-02-16T05:17:10.864Z,0.18
2023-02-16T05:19:42.751Z,0.18
2023-02-16T05:22:14.345Z,0.19
2023-02-16T05:24:46.079Z,0.22
2023-02-16T05:27:17.585Z,0.23
2023-02-16T05:29:49.198Z,0.26
2023-02-16T05:32:20.718Z,0.22
2023-02-16T05:34:52.565Z,0.23
2023-02-16T05:37:24.057Z,0.21
2023-02-16T05:39:55.938Z,0.19
2023-02-16T05:42:27.490Z,0.17
2023-02-16T05:44:59.387Z,0.15
2023-02-16T05:47:30.936Z,0.10
2023-02-16T05:50:02.432Z,0.09
2023-02-16T05:52:33.907Z,0.02
2023-02-16T05:55:05.827Z,-0.01
2023-02-16T05:57:37.373Z,-0.06
2023-02-16T06:00:09.037Z,-0.05
2023-02-16T06:02:40.585Z,-0.03
2023-02-16T06:05:12.454Z,-0.02
2023-02-16T06:07:44.223Z,0.01
2023-02-16T06:10:16.328Z,0.06
2023-02-16T06:12:47.820Z,0.12
2023-02-16T06:15:19.527Z,0.15
2023-02-16T06:17:51.204Z,0.14
2023-02-16T06:20:23.016Z,0.13
2023-02-16T06:22:54.574Z,0.09
2023-02-16T06:25:26.397Z,0.06
2023-02-16T06:27:57.900Z,0.03
2023-02-16T06:30:29.792Z,0.01
2023-02-16T06:33:01.314Z,0.01
2023-02-16T06:35:33.132Z,-0.03
2023-02-16T06:38:04.611Z,-0.04
2023-02-16T06:40:36.385Z,-0.07
2023-02-16T06:43:08.098Z,-0.09
2023-02-16T06:45:40.011Z,-0.04
2023-02-16T06:48:11.522Z,0.00
2023-02-16T06:50:43.509Z,0.07
2023-02-16T06:53:14.997Z,0.08
2023-02-16T06:55:46.814Z,0.11
2023-02-16T06:58:18.356Z,0.19
2023-02-16T07:00:50.244Z,0.29
2023-02-16T07:03:21.780Z,0.32
2023-02-16T07:05:53.791Z,0.37
2023-02-16T07:08:25.307Z,0.42
2023-02-16T07:10:57.040Z,0.50
2023-02-16T07:13:28.508Z,0.64
2023-02-16T07:16:00.043Z,0.82
2023-02-16T07:18:31.745Z,0.93
2023-02-16T07:21:03.854Z,1.01
2023-02-16T07:23:35.490Z,1.08
2023-02-16T07:26:07.297Z,1.11
2023-02-16T07:28:38.856Z,1.28
2023-02-16T07:31:10.819Z,1.27
2023-02-16T07:33:42.410Z,1.41
2023-02-16T07:36:13.908Z,1.41
2023-02-16T07:38:45.412Z,1.48
2023-02-16T07:41:16.950Z,1.45
2023-02-16T07:43:48.454Z,1.45
2023-02-16T07:46:19.993Z,1.47
2023-02-16T07:48:51.499Z,1.57
2023-02-16T07:51:23.202Z,1.64
2023-02-16T07:53:54.688Z,1.74
2023-02-16T07:56:26.531Z,1.80
2023-02-16T07:58:57.998Z,1.95
2023-02-16T08:01:30.317Z,2.10
2023-02-16T08:04:01.844Z,2.39
2023-02-16T08:06:33.518Z,2.62
2023-02-16T08:09:05.013Z,2.73
2023-02-16T08:11:36.735Z,2.93
2023-02-16T08:14:08.254Z,2.81
2023-02-16T08:16:40.201Z,3.02
2023-02-16T08:19:13.751Z,2.98
2023-02-16T08:21:49.682Z,2.92
2023-02-16T08:24:21.281Z,2.98
2023-02-16T08:26:54.053Z,3.23
2023-02-16T08:29:25.541Z,3.38
2023-02-16T08:31:57.326Z,3.61
2023-02-16T08:34:28.880Z,3.57
2023-02-16T08:37:00.578Z,3.96
2023-02-16T08:39:32.854Z,3.98
2023-02-16T08:42:04.771Z,4.03
2023-02-16T08:44:36.422Z,4.54
2023-02-16T08:47:09.647Z,4.55
2023-02-16T08:49:41.197Z,4.59
2023-02-16T08:52:13.033Z,4.69
2023-02-16T08:54:44.519Z,5.11
2023-02-16T08:57:16.062Z,5.11
2023-02-16T09:00:07.556Z,5.24
2023-02-16T09:02:39.254Z,5.59
2023-02-16T09:05:11.208Z,5.46
2023-02-16T09:07:42.848Z,5.31
2023-02-16T09:10:14.404Z,5.33
2023-02-16T09:12:49.789Z,5.70
2023-02-16T09:15:21.454Z,5.97
2023-02-16T09:17:53.017Z,6.08
2023-02-16T09:20:24.780Z,6.33
2023-02-16T09:22:56.328Z,6.81
2023-02-16T09:25:28.090Z,7.13
2023-02-16T09:27:59.634Z,7.44
2023-02-16T09:30:31.920Z,7.34
2023-02-16T09:33:03.496Z,7.88
2023-02-16T09:35:35.142Z,7.68
2023-02-16T09:38:07.715Z,7.93
2023-02-16T09:40:39.513Z,8.11
2023-02-16T09:43:11.029Z,8.39
2023-02-16T09:45:43.038Z,8.17
2023-02-16T09:48:15.692Z,9.06
2023-02-16T09:50:54.362Z,8.89
2023-02-16T09:53:27.072Z,8.88
2023-02-16T09:55:59.983Z,8.77
2023-02-16T09:58:31.584Z,9.05
2023-02-16T10:01:03.352Z,9.36
2023-02-16T10:03:34.845Z,9.50
2023-02-16T10:06:06.919Z,9.72
2023-02-16T10:08:38.954Z,9.83
2023-02-16T10:11:33.851Z,9.39
2023-02-16T10:14:05.343Z,9.87
2023-02-16T10:16:37.727Z,9.74
2023-02-16T10:19:09.280Z,9.76
2023-02-16T10:21:41.398Z,9.81
2023-02-16T10:24:13.361Z,10.24
2023-02-16T10:26:46.530Z,9.79
2023-02-16T10:29:18.145Z,10.32
2023-02-16T10:31:50.343Z,10.36
2023-02-16T10:34:23.443Z,9.93
2023-02-16T10:36:55.422Z,10.03
2023-02-16T10:39:26.917Z,10.21
2023-02-16T10:41:58.925Z,10.78
2023-02-16T10:44:30.468Z,10.39
2023-02-16T10:47:03.459Z,10.43
2023-02-16T10:49:34.961Z,10.38
2023-02-16T10:52:06.939Z,10.63
2023-02-16T10:54:38.551Z,10.80
2023-02-16T10:57:11.599Z,10.68
2023-02-16T10:59:43.226Z,10.48
2023-02-16T11:02:14.721Z,10.80
2023-02-16T11:04:46.286Z,10.79
2023-02-16T11:07:18.673Z,11.14
2023-02-16T11:09:53.889Z,10.83
2023-02-16T11:12:25.723Z,10.54
2023-02-16T11:14:57.484Z,11.36
2023-02-16T11:17:29.333Z,11.67
2023-02-16T11:20:01.989Z,11.36
2023-02-16T11:22:34.013Z,10.90
2023-02-16T11:25:05.526Z,10.60
2023-02-16T11:27:37.387Z,11.00
2023-02-16T11:30:09.441Z,11.49
2023-02-16T11:32:41.605Z,11.44
2023-02-16T11:35:13.090Z,11.68
2023-02-16T11:37:44.905Z,11.71
2023-02-16T11:40:16.390Z,10.90
2023-02-16T11:42:48.345Z,11.39
2023-02-16T11:45:19.840Z,11.48
2023-02-16T11:47:51.533Z,11.69
2023-02-16T11:50:23.680Z,11.59
2023-02-16T11:52:55.454Z,11.71
2023-02-16T11:55:27.117Z,12.12
2023-02-16T11:57:58.820Z,12.34
2023-02-16T12:00:31.691Z,12.08
2023-02-16T12:03:03.542Z,11.78
2023-02-16T12:05:35.318Z,12.11
2023-02-16T12:08:07.202Z,11.60
2023-02-16T12:10:38.749Z,11.64
2023-02-16T12:13:10.599Z,11.41
2023-02-16T12:15:43.084Z,11.58
2023-02-16T12:18:14.654Z,11.62
2023-02-16T12:20:46.505Z,11.69
2023-02-16T12:23:18.285Z,11.75
2023-02-16T12:25:50.146Z,11.97
2023-02-16T12:28:21.655Z,12.17
2023-02-16T12:30:53.691Z,11.87
2023-02-16T12:33:26.728Z,11.67
2023-02-16T12:35:58.588Z,11.60
2023-02-16T12:38:30.094Z,11.89
2023-02-16T12:41:01.981Z,12.19
2023-02-16T12:43:33.546Z,12.19
2023-02-16T12:46:05.739Z,12.31
2023-02-16T12:48:38.702Z,12.62
2023-02-16T12:51:10.640Z,12.29
2023-02-16T12:53:42.273Z,12.42
2023-02-16T12:56:13.852Z,12.17
2023-02-16T12:58:45.469Z,12.17
2023-02-16T13:01:17.993Z,11.71
2023-02-16T13:03:50.192Z,11.91
2023-02-16T13:06:21.762Z,12.05
2023-02-16T13:08:53.245Z,12.14
2023-02-16T13:11:25.186Z,12.17
2023-02-16T13:13:56.850Z,12.33
2023-02-16T13:16:30.869Z,12.81
2023-02-16T13:19:02.683Z,12.84
2023-02-16T13:21:42.488Z,12.86
2023-02-16T13:24:20.800Z,12.60
2023-02-16T13:26:52.610Z,12.69
2023-02-16T13:29:24.997Z,12.77
2023-02-16T13:31:56.803Z,12.86
2023-02-16T13:34:28.504Z,12.89
2023-02-16T13:37:00.222Z,12.98
2023-02-16T13:39:31.983Z,12.91
2023-02-16T13:42:03.772Z,12.85
2023-02-16T13:44:35.278Z,13.18
2023-02-16T13:47:07.088Z,12.88
2023-02-16T13:49:42.322Z,13.36
2023-02-16T13:52:13.882Z,13.50
2023-02-16T13:54:45.395Z,13.76
2023-02-16T13:57:18.405Z,13.76
2023-02-16T13:59:49.909Z,13.71
2023-02-16T14:02:21.509Z,13.76
2023-02-16T14:04:53.107Z,13.76
2023-02-16T14:07:24.973Z,13.71
2023-02-16T14:09:56.492Z,12.98
2023-02-16T14:12:28.537Z,13.07
2023-02-16T14:15:00.247Z,12.73
2023-02-16T14:17:32.284Z,12.74
2023-02-16T14:20:05.147Z,12.97
2023-02-16T14:22:36.931Z,12.90
2023-02-16T14:25:08.811Z,12.99
2023-02-16T14:27:40.573Z,12.94
2023-02-16T14:30:12.234Z,13.07
2023-02-16T14:32:44.096Z,12.93
2023-02-16T14:35:15.669Z,12.77
2023-02-16T14:37:47.520Z,12.73
2023-02-16T14:40:19.065Z,12.67
2023-02-16T14:42:50.967Z,12.78
2023-02-16T14:45:22.574Z,12.81
2023-02-16T14:47:55.596Z,12.62
2023-02-16T14:50:28.595Z,12.69
2023-02-16T14:53:00.640Z,12.66
2023-02-16T14:55:32.132Z,12.33
2023-02-16T14:58:04.015Z,12.36
2023-02-16T15:00:35.822Z,12.36
2023-02-16T15:03:07.706Z,12.30
2023-02-16T15:05:39.717Z,12.28
2023-02-16T15:08:11.789Z,12.24
2023-02-16T15:10:46.340Z,12.25
2023-02-16T15:13:17.875Z,12.27
2023-02-16T15:15:50.032Z,12.07
2023-02-16T15:18:21.625Z,12.07
2023-02-16T15:20:53.167Z,12.02
2023-02-16T15:23:25.435Z,11.95
2023-02-16T15:25:56.987Z,11.93
2023-02-16T15:28:29.762Z,11.80
2023-02-16T15:31:01.545Z,11.76
2023-02-16T15:33:33.996Z,11.69
2023-02-16T15:36:07.423Z,11.72
2023-02-16T15:38:39.313Z,11.58
2023-02-16T15:41:10.871Z,11.48
2023-02-16T15:43:43.236Z,11.50
2023-02-16T15:46:15.854Z,11.49
2023-02-16T15:48:49.618Z,11.47
2023-02-16T15:51:21.150Z,11.38
2023-02-16T15:53:52.951Z,11.41
2023-02-16T15:56:24.492Z,11.31
2023-02-16T15:58:56.524Z,11.24
2023-02-16T16:01:33.006Z,11.19
2023-02-16T16:04:05.140Z,11.09
2023-02-16T16:06:36.706Z,11.01
2023-02-16T16:09:08.899Z,10.99
2023-02-16T16:11:40.929Z,10.85
2023-02-16T16:14:12.778Z,10.75
2023-02-16T16:16:46.171Z,10.61
2023-02-16T16:19:17.817Z,10.53
2023-02-16T16:21:49.765Z,10.42
2023-02-16T16:24:22.501Z,10.33
2023-02-16T16:26:55.801Z,10.28
2023-02-16T16:29:29.872Z,10.20
2023-02-16T16:32:01.831Z,10.11
2023-02-16T16:34:33.428Z,10.02
2023-02-16T16:37:07.215Z,9.97
2023-02-16T16:39:40.424Z,9.91
2023-02-16T16:42:13.088Z,9.89
2023-02-16T16:44:44.676Z,9.79
2023-02-16T16:47:16.240Z,9.78
2023-02-16T16:49:47.744Z,9.70
2023-02-16T16:52:19.301Z,9.69
2023-02-16T16:54:51.724Z,9.65
2023-02-16T16:57:24.432Z,9.58
2023-02-16T16:59:56.107Z,9.52
2023-02-16T17:02:27.825Z,9.47
2023-02-16T17:04:59.341Z,9.45
2023-02-16T17:07:31.130Z,9.41
2023-02-16T17:10:02.681Z,9.36
2023-02-16T17:12:34.539Z,9.36
2023-02-16T17:15:06.052Z,9.34
2023-02-16T17:17:38.785Z,9.33
2023-02-16T17:20:10.281Z,9.27
2023-02-16T17:22:41.966Z,9.26
2023-02-16T17:25:13.464Z,9.25
2023-02-16T17:27:45.376Z,9.23
2023-02-16T17:30:17.021Z,9.19
2023-02-16T17:32:48.902Z,9.18
2023-02-16T17:35:20.467Z,9.07
2023-02-16T17:37:52.354Z,9.06
2023-02-16T17:40:23.855Z,9.04
2023-02-16T17:42:55.796Z,9.05
2023-02-16T17:45:27.299Z,9.00
2023-02-16T17:47:59.084Z,9.01
2023-02-16T17:50:32.687Z,8.95
2023-02-16T17:53:04.496Z,8.95
2023-02-16T17:55:36.001Z,8.93
2023-02-16T17:58:07.785Z,8.95
2023-02-16T18:00:39.301Z,8.95
2023-02-16T18:03:11.236Z,9.01
2023-02-16T18:05:42.754Z,9.07
2023-02-16T18:08:14.296Z,9.08
2023-02-16T18:10:45.816Z,9.12
2023-02-16T18:13:17.433Z,9.11
2023-02-16T18:15:48.932Z,9.12
2023-02-16T18:18:20.466Z,9.12
2023-02-16T18:20:51.978Z,9.11
2023-02-16T18:23:23.852Z,9.04
2023-02-16T18:25:55.387Z,9.02
2023-02-16T18:28:27.259Z,8.94
2023-02-16T18:30:58.858Z,8.95
2023-02-16T18:33:30.904Z,8.92
2023-02-16T18:36:02.704Z,8.89
2023-02-16T18:38:34.792Z,8.94
2023-02-16T18:41:06.319Z,8.93
2023-02-16T18:43:38.215Z,8.91
2023-02-16T18:46:09.774Z,8.90
2023-02-16T18:48:41.677Z,8.89
2023-02-16T18:51:13.184Z,8.84
2023-02-16T18:53:45.015Z,8.82
2023-02-16T18:56:16.527Z,8.77
2023-02-16T18:58:48.174Z,8.76
2023-02-16T19:01:19.786Z,8.75
2023-02-16T19:03:51.617Z,8.75
2023-02-16T19:06:23.096Z,8.76
2023-02-16T19:08:54.669Z,8.75
2023-02-16T19:11:28.045Z,8.76
2023-02-16T19:13:59.645Z,8.67
2023-02-16T19:16:31.208Z,8.64
2023-02-16T19:19:03.086Z,8.63
2023-02-16T19:21:34.590Z,8.14
2023-02-16T19:24:06.484Z,8.55
2023-02-16T19:26:37.993Z,8.54
2023-02-16T19:29:09.819Z,8.53
2023-02-16T19:31:41.467Z,8.58
2023-02-16T19:34:13.052Z,8.55
2023-02-16T19:36:44.638Z,8.58
2023-02-16T19:39:16.389Z,8.56
2023-02-16T19:41:47.885Z,8.55
2023-02-16T19:44:19.440Z,8.55
2023-02-16T19:46:51.235Z,8.56
2023-02-16T19:49:22.997Z,8.48
2023-02-16T19:51:55.546Z,8.52
2023-02-16T19:54:28.820Z,8.53
2023-02-16T19:57:00.341Z,8.55
2023-02-16T19:59:31.898Z,8.53
2023-02-16T20:02:03.820Z,8.47
2023-02-16T20:04:35.671Z,8.46
2023-02-16T20:07:08.533Z,8.46
2023-02-16T20:09:40.516Z,8.41
2023-02-16T20:12:12.114Z,8.48
2023-02-16T20:14:43.860Z,8.40
2023-02-16T20:17:15.385Z,8.37
2023-02-16T20:19:47.304Z,8.38
2023-02-16T20:22:18.822Z,8.41
2023-02-16T20:24:50.704Z,8.35
2023-02-16T20:27:22.242Z,8.37
2023-02-16T20:29:54.338Z,8.37
2023-02-16T20:32:25.949Z,8.37
2023-02-16T20:34:57.778Z,8.37
2023-02-16T20:37:30.206Z,8.39
2023-02-16T20:40:01.787Z,8.32
2023-02-16T20:42:33.396Z,8.29
2023-02-16T20:45:05.451Z,8.30
2023-02-16T20:47:37.057Z,8.29
2023-02-16T20:50:08.604Z,8.27
2023-02-16T20:52:40.184Z,8.22
2023-02-16T20:55:12.099Z,8.22
2023-02-16T20:57:43.654Z,8.27
2023-02-16T21:00:16.441Z,8.18
2023-02-16T21:02:47.973Z,8.11
2023-02-16T21:05:19.508Z,8.07
2023-02-16T21:07:51.041Z,8.07
2023-02-16T21:10:22.860Z,7.98
2023-02-16T21:12:54.370Z,7.95
2023-02-16T21:15:26.116Z,7.99
2023-02-16T21:17:57.663Z,7.88
2023-02-16T21:20:29.318Z,7.84
2023-02-16T21:23:03.454Z,7.74
2023-02-16T21:25:35.194Z,7.62
2023-02-16T21:28:06.768Z,7.63
2023-02-16T21:30:38.593Z,7.63
2023-02-16T21:33:10.561Z,7.61
2023-02-16T21:35:42.103Z,7.58
2023-02-16T21:38:13.672Z,7.56
2023-02-16T21:41:04.227Z,7.59
2023-02-16T21:43:36.006Z,7.62
2023-02-16T21:46:08.600Z,7.56
2023-02-16T21:48:50.527Z,7.56
2023-02-16T21:51:22.095Z,7.59
2023-02-16T21:53:53.617Z,7.61
2023-02-16T21:56:25.146Z,7.63
2023-02-16T21:58:56.968Z,7.68
2023-02-16T22:01:28.534Z,7.67
2023-02-16T22:04:00.523Z,7.67
2023-02-16T22:06:35.016Z,7.67
2023-02-16T22:09:06.889Z,7.64
2023-02-16T22:11:38.418Z,7.69
2023-02-16T22:14:10.249Z,7.68
2023-02-16T22:16:41.801Z,7.70
2023-02-16T22:19:13.362Z,7.65
2023-02-16T22:21:44.900Z,7.57
2023-02-16T22:24:17.002Z,7.56
2023-02-16T22:26:48.560Z,7.58
2023-02-16T22:29:20.155Z,7.55
2023-02-16T22:31:51.697Z,7.58
2023-02-16T22:34:23.350Z,7.52
2023-02-16T22:36:54.892Z,7.44
2023-02-16T22:39:26.690Z,7.46
2023-02-16T22:41:58.221Z,7.48
2023-02-16T22:44:30.113Z,7.48
2023-02-16T22:47:01.709Z,7.49
2023-02-16T22:49:33.257Z,7.49
2023-02-16T22:52:04.782Z,7.53
2023-02-16T22:54:36.534Z,5.77
2023-02-16T22:57:08.063Z,7.51
2023-02-16T22:59:39.600Z,7.53
2023-02-16T23:02:11.137Z,7.51
2023-02-16T23:04:43.381Z,7.55
2023-02-16T23:07:15.018Z,7.49
2023-02-16T23:09:46.695Z,7.55
2023-02-16T23:12:18.787Z,7.48
2023-02-16T23:14:50.554Z,7.44
2023-02-16T23:17:22.081Z,7.47
2023-02-16T23:19:53.631Z,7.46
2023-02-16T23:22:25.138Z,7.44
2023-02-16T23:25:15.367Z,7.44
2023-02-16T23:27:46.854Z,7.45
2023-02-16T23:30:18.479Z,7.49
2023-02-16T23:32:50.031Z,7.45
2023-02-16T23:35:21.633Z,7.47
2023-02-16T23:37:53.142Z,7.43
2023-02-16T23:40:24.831Z,7.47
2023-02-16T23:42:56.397Z,7.40
2023-02-16T23:45:28.314Z,7.44
2023-02-16T23:47:59.828Z,7.46
2023-02-16T23:50:31.338Z,7.50
2023-02-16T23:53:02.886Z,7.51
2023-02-16T23:55:34.715Z,7.54
2023-02-16T23:58:06.238Z,7.53
